createdAt,value
2022-08-05T00:02:07.765Z,72.44
2022-08-05T00:04:45.710Z,72.51
2022-08-05T00:08:00.465Z,72.47
2022-08-05T00:10:21.710Z,72.13
2022-08-05T00:12:59.584Z,72.29
2022-08-05T00:15:55.906Z,72.52
2022-08-05T00:18:26.292Z,72.36
2022-08-05T00:21:01.313Z,72.40
2022-08-05T00:23:46.968Z,72.32
2022-08-05T00:26:26.881Z,72.27
2022-08-05T00:28:59.370Z,72.51
2022-08-05T00:31:53.317Z,72.32
2022-08-05T00:34:55.332Z,72.54
2022-08-05T00:37:18.152Z,72.31
2022-08-05T00:39:57.939Z,72.64
2022-08-05T00:42:33.089Z,72.50
2022-08-05T00:45:08.649Z,72.25
2022-08-05T00:47:56.509Z,72.60
2022-08-05T00:50:30.141Z,72.32
2022-08-05T00:53:02.877Z,72.21
2022-08-05T00:55:43.522Z,72.31
2022-08-05T00:58:17.325Z,72.18
2022-08-05T01:00:51.818Z,72.01
2022-08-05T01:03:31.096Z,72.42
2022-08-05T01:06:13.967Z,72.14
2022-08-05T01:08:48.008Z,72.17
2022-08-05T01:11:36.970Z,72.06
2022-08-05T01:14:15.561Z,72.01
2022-08-05T01:16:52.575Z,72.35
2022-08-05T01:19:56.230Z,72.18
2022-08-05T01:22:43.369Z,71.96
2022-08-05T01:25:42.850Z,71.89
2022-08-05T01:28:35.881Z,71.87
2022-08-05T01:31:12.436Z,72.08
2022-08-05T01:33:52.009Z,72.11
2022-08-05T01:36:31.774Z,72.05
2022-08-05T01:39:05.415Z,71.82
2022-08-05T01:41:44.438Z,72.24
2022-08-05T01:44:20.108Z,72.13
2022-08-05T01:46:59.029Z,72.21
2022-08-05T01:50:00.462Z,71.94
2022-08-05T01:52:27.182Z,71.83
2022-08-05T01:55:04.671Z,71.94
2022-08-05T01:58:10.211Z,71.93
2022-08-05T02:00:39.100Z,72.12
2022-08-05T02:03:24.375Z,72.15
2022-08-05T02:06:03.409Z,72.31
2022-08-05T02:08:58.164Z,71.95
2022-08-05T02:11:42.326Z,72.03
2022-08-05T02:14:25.460Z,72.24
2022-08-05T02:17:05.589Z,72.21
2022-08-05T02:19:47.615Z,72.39
2022-08-05T02:22:27.461Z,72.24
2022-08-05T02:25:04.938Z,72.27
2022-08-05T02:27:57.991Z,72.37
2022-08-05T02:30:38.733Z,72.18
2022-08-05T02:33:36.023Z,72.69
2022-08-05T02:36:15.580Z,72.20
2022-08-05T02:38:53.414Z,72.17
2022-08-05T02:41:28.924Z,72.27
2022-08-05T02:44:13.496Z,72.15
2022-08-05T02:46:58.410Z,72.14
2022-08-05T02:49:40.384Z,72.13
2022-08-05T02:52:29.403Z,72.41
2022-08-05T02:55:06.554Z,72.03
2022-08-05T02:58:20.482Z,71.85
2022-08-05T03:00:39.069Z,72.14
2022-08-05T03:03:15.229Z,71.81
2022-08-05T03:06:56.560Z,72.07
2022-08-05T03:08:44.203Z,72.18
2022-08-05T03:11:55.079Z,72.16
2022-08-05T03:14:13.303Z,72.01
2022-08-05T03:16:46.266Z,72.07
2022-08-05T03:19:33.494Z,71.92
2022-08-05T03:22:16.001Z,71.50
2022-08-05T03:24:52.124Z,71.90
2022-08-05T03:27:39.193Z,71.89
2022-08-05T03:30:18.701Z,71.77
2022-08-05T03:32:54.556Z,71.87
2022-08-05T03:35:28.411Z,71.73
2022-08-05T03:38:02.884Z,71.82
2022-08-05T03:40:35.814Z,71.66
2022-08-05T03:43:58.986Z,71.80
2022-08-05T03:46:01.722Z,71.87
2022-08-05T03:48:35.607Z,71.93
2022-08-05T03:52:37.936Z,71.84
2022-08-05T03:55:53.957Z,71.78
2022-08-05T03:57:16.453Z,71.77
2022-08-05T03:59:55.869Z,71.95
2022-08-05T04:02:38.628Z,71.84
2022-08-05T04:05:19.358Z,71.68
2022-08-05T04:07:58.660Z,71.49
2022-08-05T04:10:37.940Z,71.40
2022-08-05T04:13:11.727Z,71.17
2022-08-05T04:16:02.701Z,71.01
2022-08-05T04:18:38.300Z,70.56
2022-08-05T04:21:12.250Z,70.48
2022-08-05T04:24:08.881Z,69.98
2022-08-05T04:26:43.445Z,69.87
2022-08-05T04:29:15.918Z,69.80
2022-08-05T04:31:49.821Z,69.58
2022-08-05T04:34:32.532Z,69.47
2022-08-05T04:37:07.210Z,69.26
2022-08-05T04:39:40.108Z,69.16
2022-08-05T04:42:14.085Z,68.93
2022-08-05T04:44:46.513Z,68.77
2022-08-05T04:47:20.324Z,68.90
2022-08-05T04:50:01.422Z,68.70
2022-08-05T04:52:36.163Z,68.80
2022-08-05T04:55:14.001Z,68.50
2022-08-05T04:57:54.194Z,68.92
2022-08-05T05:00:27.137Z,68.75
2022-08-05T05:03:03.740Z,68.67
2022-08-05T05:06:39.890Z,68.88
2022-08-05T05:08:30.607Z,68.94
2022-08-05T05:11:03.250Z,68.84
2022-08-05T05:13:42.960Z,68.94
2022-08-05T05:16:16.268Z,68.85
2022-08-05T05:19:09.210Z,68.79
2022-08-05T05:21:44.932Z,68.91
2022-08-05T05:24:21.780Z,69.01
2022-08-05T05:26:54.559Z,69.08
2022-08-05T05:30:03.321Z,69.30
2022-08-05T05:32:23.316Z,69.25
2022-08-05T05:34:55.909Z,69.32
2022-08-05T05:37:58.846Z,69.44
2022-08-05T05:40:26.226Z,69.55
2022-08-05T05:43:02.130Z,69.60
2022-08-05T05:45:36.210Z,69.80
2022-08-05T05:48:20.497Z,69.85
2022-08-05T05:51:00.237Z,69.88
2022-08-05T05:53:58.147Z,69.99
2022-08-05T05:56:34.780Z,69.93
2022-08-05T05:59:08.220Z,70.01
2022-08-05T06:01:57.087Z,70.09
2022-08-05T06:04:30.740Z,70.17
2022-08-05T06:07:03.286Z,70.42
2022-08-05T06:09:59.945Z,70.34
2022-08-05T06:12:28.386Z,70.18
2022-08-05T06:15:01.523Z,70.25
2022-08-05T06:17:52.821Z,70.03
2022-08-05T06:20:26.171Z,69.81
2022-08-05T06:23:01.349Z,69.31
2022-08-05T06:26:12.286Z,68.96
2022-08-05T06:28:29.452Z,68.32
2022-08-05T06:31:11.221Z,68.29
2022-08-05T06:34:07.839Z,67.47
2022-08-05T06:36:56.801Z,67.25
2022-08-05T06:39:30.336Z,66.72
2022-08-05T06:42:04.382Z,66.92
2022-08-05T06:44:37.370Z,66.82
2022-08-05T06:48:11.545Z,66.95
2022-08-05T06:50:05.529Z,66.52
2022-08-05T06:52:40.500Z,66.73
2022-08-05T06:55:13.175Z,66.96
2022-08-05T06:57:57.716Z,66.87
2022-08-05T07:00:41.176Z,66.33
2022-08-05T07:03:13.711Z,66.21
2022-08-05T07:05:50.684Z,66.21
2022-08-05T07:08:23.349Z,66.33
2022-08-05T07:10:57.683Z,66.70
2022-08-05T07:13:58.792Z,66.27
2022-08-05T07:18:02.350Z,66.34
2022-08-05T07:22:37.452Z,66.54
2022-08-05T07:25:53.878Z,66.23
2022-08-05T07:28:08.245Z,66.35
2022-08-05T07:30:50.385Z,66.38
2022-08-05T07:33:36.762Z,66.07
2022-08-05T07:36:20.697Z,66.47
2022-08-05T07:38:56.016Z,66.24
2022-08-05T07:42:12.684Z,66.45
2022-08-05T07:44:21.190Z,66.01
2022-08-05T07:46:54.074Z,66.20
2022-08-05T07:49:26.536Z,65.60
2022-08-05T07:51:59.579Z,65.30
2022-08-05T07:54:33.818Z,64.97
2022-08-05T07:57:41.452Z,64.87
2022-08-05T08:00:11.437Z,64.75
2022-08-05T08:03:13.900Z,64.75
2022-08-05T08:05:41.168Z,64.33
2022-08-05T08:08:16.079Z,64.45
2022-08-05T08:10:55.769Z,63.97
2022-08-05T08:13:28.986Z,64.16
2022-08-05T08:16:50.351Z,63.90
2022-08-05T08:18:54.734Z,64.22
2022-08-05T08:21:27.362Z,64.31
2022-08-05T08:24:04.926Z,64.07
2022-08-05T08:26:41.413Z,63.76
2022-08-05T08:29:45.155Z,63.89
2022-08-05T08:32:06.831Z,63.78
2022-08-05T08:34:43.658Z,64.35
2022-08-05T08:37:18.791Z,63.87
2022-08-05T08:39:51.435Z,63.52
2022-08-05T08:42:34.073Z,63.12
2022-08-05T08:45:26.959Z,62.73
2022-08-05T08:48:12.468Z,62.49
2022-08-05T08:51:22.275Z,62.01
2022-08-05T08:53:50.150Z,61.82
2022-08-05T08:56:26.958Z,62.24
2022-08-05T08:59:01.373Z,61.98
2022-08-05T09:01:43.164Z,62.16
2022-08-05T09:04:30.714Z,61.83
2022-08-05T09:07:04.565Z,61.96
2022-08-05T09:09:51.930Z,61.69
2022-08-05T09:12:27.389Z,61.94
2022-08-05T09:15:06.155Z,61.88
2022-08-05T09:17:49.318Z,61.59
2022-08-05T09:20:37.910Z,61.92
2022-08-05T09:23:18.929Z,61.17
2022-08-05T09:26:06.002Z,61.31
2022-08-05T09:28:40.882Z,61.22
2022-08-05T09:32:38.796Z,61.49
2022-08-05T09:34:13.047Z,61.12
2022-08-05T09:36:55.923Z,61.26
2022-08-05T09:39:45.387Z,61.39
2022-08-05T09:42:23.992Z,60.84
2022-08-05T09:45:17.710Z,60.90
2022-08-05T09:48:01.106Z,61.09
2022-08-05T09:50:44.889Z,60.58
2022-08-05T09:53:26.128Z,61.00
2022-08-05T09:56:12.833Z,60.43
2022-08-05T09:58:57.001Z,60.58
2022-08-05T10:01:36.403Z,60.90
2022-08-05T10:04:16.205Z,61.14
2022-08-05T10:06:59.374Z,61.44
2022-08-05T10:09:44.848Z,61.22
2022-08-05T10:12:18.525Z,60.74
2022-08-05T10:15:25.744Z,61.34
2022-08-05T10:18:23.089Z,61.65
2022-08-05T10:21:08.463Z,60.84
2022-08-05T10:23:55.498Z,60.82
2022-08-05T10:26:33.942Z,60.75
2022-08-05T10:29:07.931Z,60.41
2022-08-05T10:33:02.199Z,60.51
2022-08-05T10:34:33.570Z,60.41
2022-08-05T10:37:07.624Z,59.77
2022-08-05T10:40:04.019Z,59.43
2022-08-05T10:42:38.814Z,58.83
2022-08-05T10:45:24.020Z,58.35
2022-08-05T10:48:52.395Z,59.25
2022-08-05T10:51:53.223Z,58.41
2022-08-05T10:55:04.974Z,58.84
2022-08-05T10:57:41.398Z,57.53
2022-08-05T11:00:20.415Z,57.02
2022-08-05T11:03:25.144Z,57.34
2022-08-05T11:06:08.200Z,57.02
2022-08-05T11:09:45.087Z,57.08
2022-08-05T11:12:54.352Z,56.96
2022-08-05T11:16:00.938Z,56.03
2022-08-05T11:18:30.221Z,56.43
2022-08-05T11:21:31.243Z,57.05
2022-08-05T11:24:30.112Z,56.47
2022-08-05T11:27:50.082Z,56.66
2022-08-05T11:30:25.992Z,55.39
2022-08-05T11:33:34.582Z,56.72
2022-08-05T11:36:34.654Z,55.62
2022-08-05T11:39:13.741Z,55.47
2022-08-05T11:42:01.755Z,55.34
2022-08-05T11:44:52.844Z,55.16
2022-08-05T11:47:48.462Z,54.74
2022-08-05T11:50:20.628Z,54.20
2022-08-05T11:52:57.559Z,54.35
2022-08-05T11:55:31.595Z,54.15
2022-08-05T11:58:12.010Z,54.14
2022-08-05T12:00:47.011Z,53.79
2022-08-05T12:03:32.080Z,53.35
2022-08-05T12:06:10.060Z,52.91
2022-08-05T12:08:49.712Z,52.40
2022-08-05T12:11:24.205Z,52.64
2022-08-05T12:14:04.508Z,52.04
2022-08-05T12:16:38.697Z,51.67
2022-08-05T12:20:27.016Z,51.35
2022-08-05T12:22:09.595Z,50.98
2022-08-05T12:24:49.431Z,51.13
2022-08-05T12:27:25.381Z,50.61
2022-08-05T12:30:03.517Z,50.82
2022-08-05T12:32:46.139Z,50.70
2022-08-05T12:35:37.208Z,50.14
2022-08-05T12:38:12.547Z,49.86
2022-08-05T12:40:47.866Z,49.84
2022-08-05T12:43:22.852Z,49.93
2022-08-05T12:45:57.180Z,49.73
2022-08-05T12:48:39.617Z,50.52
2022-08-05T12:52:10.255Z,50.15
2022-08-05T12:54:16.797Z,50.22
2022-08-05T12:56:58.134Z,50.28
2022-08-05T13:00:08.465Z,50.24
2022-08-05T13:02:30.610Z,50.44
2022-08-05T13:05:07.285Z,51.02
2022-08-05T13:07:59.517Z,51.33
2022-08-05T13:10:33.510Z,51.42
2022-08-05T13:13:08.924Z,51.44
2022-08-05T13:15:50.493Z,51.66
2022-08-05T13:18:24.084Z,52.14
2022-08-05T13:20:57.193Z,51.92
2022-08-05T13:23:31.109Z,52.28
2022-08-05T13:26:05.750Z,52.31
2022-08-05T13:28:43.986Z,52.35
2022-08-05T13:31:17.030Z,52.45
2022-08-05T13:34:24.931Z,52.44
2022-08-05T13:37:00.351Z,52.39
2022-08-05T13:40:15.839Z,53.03
2022-08-05T13:42:27.445Z,53.00
2022-08-05T13:45:00.909Z,53.13
2022-08-05T13:48:08.679Z,53.23
2022-08-05T13:50:27.104Z,53.89
2022-08-05T13:52:59.711Z,54.32
2022-08-05T13:55:41.114Z,54.39
2022-08-05T13:58:30.531Z,54.17
2022-08-05T14:01:04.307Z,54.09
2022-08-05T14:03:37.022Z,53.71
2022-08-05T14:06:25.660Z,53.99
2022-08-05T14:08:59.662Z,54.19
2022-08-05T14:11:33.603Z,54.58
2022-08-05T14:14:30.848Z,54.07
2022-08-05T14:17:06.845Z,54.12
2022-08-05T14:19:54.366Z,54.66
2022-08-05T14:22:30.274Z,54.58
2022-08-05T14:25:06.188Z,54.54
2022-08-05T14:27:53.409Z,54.75
2022-08-05T14:30:28.163Z,54.28
2022-08-05T14:33:00.927Z,54.33
2022-08-05T14:35:50.509Z,54.74
2022-08-05T14:38:33.152Z,54.56
2022-08-05T14:41:07.827Z,54.17
2022-08-05T14:44:00.309Z,54.15
2022-08-05T14:46:35.549Z,54.43
2022-08-05T14:49:08.471Z,54.24
2022-08-05T14:51:42.878Z,54.49
2022-08-05T14:54:27.945Z,54.48
2022-08-05T14:57:05.365Z,54.36
2022-08-05T14:59:44.270Z,54.34
2022-08-05T15:02:17.982Z,54.50
2022-08-05T15:04:53.078Z,54.56
2022-08-05T15:08:11.607Z,54.61
2022-08-05T15:10:18.722Z,54.32
2022-08-05T15:13:04.157Z,54.33
2022-08-05T15:15:55.801Z,54.35
2022-08-05T15:18:29.118Z,54.67
2022-08-05T15:21:07.447Z,54.80
2022-08-05T15:23:40.496Z,54.40
2022-08-05T15:26:12.989Z,54.01
2022-08-05T15:28:45.602Z,53.90
2022-08-05T15:31:34.797Z,53.88
2022-08-05T15:34:32.567Z,54.19
2022-08-05T15:37:03.456Z,54.82
2022-08-05T15:41:03.676Z,54.98
2022-08-05T15:42:56.151Z,55.53
2022-08-05T15:45:38.691Z,55.58
2022-08-05T15:48:14.491Z,56.01
2022-08-05T15:50:48.338Z,56.12
2022-08-05T15:53:21.437Z,56.53
2022-08-05T15:56:04.189Z,56.34
2022-08-05T15:58:38.160Z,56.46
2022-08-05T16:01:16.478Z,56.89
2022-08-05T16:03:51.881Z,56.99
2022-08-05T16:06:24.342Z,56.98
2022-08-05T16:08:56.962Z,57.01
2022-08-05T16:11:42.329Z,57.60
2022-08-05T16:14:17.248Z,57.92
2022-08-05T16:16:50.598Z,58.03
2022-08-05T16:20:03.131Z,58.55
2022-08-05T16:22:17.372Z,58.42
2022-08-05T16:24:51.695Z,58.70
2022-08-05T16:27:47.027Z,59.69
2022-08-05T16:30:26.399Z,59.80
2022-08-05T16:33:02.073Z,60.30
2022-08-05T16:35:42.443Z,60.20
2022-08-05T16:38:23.939Z,61.07
2022-08-05T16:41:00.720Z,61.22
2022-08-05T16:43:35.410Z,61.61
2022-08-05T16:46:23.505Z,61.36
2022-08-05T16:48:57.225Z,61.93
2022-08-05T16:51:42.680Z,62.41
2022-08-05T16:54:28.923Z,62.28
2022-08-05T16:57:04.576Z,62.68
2022-08-05T17:00:00.387Z,62.40
2022-08-05T17:02:37.148Z,62.53
2022-08-05T17:05:10.159Z,63.03
2022-08-05T17:07:54.584Z,63.37
2022-08-05T17:10:30.487Z,63.42
2022-08-05T17:13:03.236Z,63.75
2022-08-05T17:15:48.541Z,64.56
2022-08-05T17:18:23.720Z,64.25
2022-08-05T17:20:56.298Z,64.89
2022-08-05T17:24:05.054Z,65.22
2022-08-05T17:26:22.749Z,65.00
2022-08-05T17:28:56.100Z,65.99
2022-08-05T17:31:56.513Z,66.19
2022-08-05T17:34:21.190Z,66.12
2022-08-05T17:37:04.630Z,66.46
2022-08-05T17:39:59.838Z,66.52
2022-08-05T17:42:33.040Z,67.20
2022-08-05T17:45:17.700Z,66.90
2022-08-05T17:47:55.816Z,67.64
2022-08-05T17:50:30.574Z,67.54
2022-08-05T17:53:05.145Z,68.15
2022-08-05T17:55:39.987Z,67.92
2022-08-05T17:58:14.573Z,68.48
2022-08-05T18:00:50.942Z,68.26
2022-08-05T18:03:59.394Z,68.85
2022-08-05T18:06:17.679Z,69.08
2022-08-05T18:09:03.804Z,69.30
2022-08-05T18:11:37.981Z,69.64
2022-08-05T18:14:13.363Z,69.38
2022-08-05T18:16:52.905Z,69.67
2022-08-05T18:19:26.192Z,69.84
2022-08-05T18:22:09.061Z,70.03
2022-08-05T18:24:43.867Z,69.91
2022-08-05T18:27:18.912Z,70.22
2022-08-05T18:29:54.558Z,69.96
2022-08-05T18:32:28.018Z,70.16
2022-08-05T18:35:01.254Z,70.29
2022-08-05T18:37:40.360Z,70.60
2022-08-05T18:40:33.986Z,70.76
2022-08-05T18:43:16.474Z,70.80
2022-08-05T18:45:49.523Z,71.44
2022-08-05T18:48:31.563Z,71.23
2022-08-05T18:52:06.089Z,70.82
2022-08-05T18:54:17.030Z,70.34
2022-08-05T18:56:51.307Z,70.47
2022-08-05T18:59:43.587Z,70.62
2022-08-05T19:02:36.622Z,70.68
2022-08-05T19:06:11.238Z,70.87
2022-08-05T19:08:07.520Z,71.01
2022-08-05T19:10:46.066Z,71.18
2022-08-05T19:13:19.739Z,71.41
2022-08-05T19:15:59.221Z,71.46
2022-08-05T19:18:35.918Z,71.78
2022-08-05T19:21:12.197Z,71.79
2022-08-05T19:24:07.389Z,71.81
2022-08-05T19:26:54.382Z,71.87
2022-08-05T19:29:36.023Z,71.85
2022-08-05T19:32:11.757Z,71.85
2022-08-05T19:34:55.104Z,71.92
2022-08-05T19:37:47.031Z,71.83
2022-08-05T19:40:24.220Z,71.86
2022-08-05T19:43:05.493Z,71.95
2022-08-05T19:45:39.930Z,71.78
2022-08-05T19:48:28.659Z,71.91
2022-08-05T19:51:01.033Z,72.15
2022-08-05T19:54:04.162Z,72.14
2022-08-05T19:56:27.543Z,71.91
2022-08-05T19:59:50.933Z,72.30
2022-08-05T20:01:58.241Z,71.92
2022-08-05T20:04:32.158Z,72.44
2022-08-05T20:07:04.778Z,72.42
2022-08-05T20:09:55.092Z,72.35
2022-08-05T20:12:29.110Z,72.50
2022-08-05T20:15:01.579Z,72.71
2022-08-05T20:17:36.501Z,72.64
2022-08-05T20:20:12.171Z,72.55
2022-08-05T20:22:44.630Z,72.43
2022-08-05T20:25:19.424Z,72.91
2022-08-05T20:27:55.850Z,72.92
2022-08-05T20:30:30.447Z,72.84
2022-08-05T20:33:03.127Z,72.81
2022-08-05T20:35:40.440Z,72.96
2022-08-05T20:38:26.892Z,72.74
2022-08-05T20:41:00.806Z,72.67
2022-08-05T20:43:59.550Z,72.50
2022-08-05T20:46:30.101Z,72.54
2022-08-05T20:49:02.738Z,72.83
2022-08-05T20:51:40.414Z,73.04
2022-08-05T20:54:14.125Z,73.02
2022-08-05T20:56:46.857Z,72.93
2022-08-05T20:59:26.267Z,73.02
2022-08-05T21:01:59.603Z,73.09
2022-08-05T21:04:33.077Z,73.01
2022-08-05T21:07:08.870Z,72.87
2022-08-05T21:09:50.117Z,72.73
2022-08-05T21:12:26.308Z,72.77
2022-08-05T21:14:59.823Z,72.90
2022-08-05T21:17:32.769Z,72.87
2022-08-05T21:20:10.165Z,72.78
2022-08-05T21:22:44.643Z,72.60
2022-08-05T21:25:17.113Z,72.72
2022-08-05T21:27:52.687Z,72.45
2022-08-05T21:30:26.006Z,72.62
2022-08-05T21:32:58.786Z,72.71
2022-08-05T21:35:43.813Z,72.61
2022-08-05T21:38:25.778Z,72.43
2022-08-05T21:40:58.355Z,72.21
2022-08-05T21:43:41.492Z,72.45
2022-08-05T21:46:14.366Z,72.61
2022-08-05T21:48:46.878Z,72.50
2022-08-05T21:51:25.021Z,72.48
2022-08-05T21:54:13.572Z,72.51
2022-08-05T21:56:51.460Z,72.23
2022-08-05T21:59:37.794Z,72.26
2022-08-05T22:02:20.164Z,72.19
2022-08-05T22:04:52.730Z,72.28
2022-08-05T22:07:39.300Z,72.16
2022-08-05T22:10:26.550Z,72.16
2022-08-05T22:13:08.680Z,72.16
2022-08-05T22:16:05.040Z,72.09
2022-08-05T22:18:49.011Z,71.86
2022-08-05T22:21:21.881Z,71.83
2022-08-05T22:24:39.800Z,71.79
2022-08-05T22:27:26.237Z,71.80
2022-08-05T22:30:18.795Z,71.65
2022-08-05T22:32:52.429Z,71.72
2022-08-05T22:35:38.643Z,71.78
2022-08-05T22:38:20.270Z,71.55
2022-08-05T22:40:54.845Z,71.86
2022-08-05T22:43:37.170Z,71.77
2022-08-05T22:46:13.223Z,71.54
2022-08-05T22:48:46.598Z,71.66
2022-08-05T22:51:23.278Z,71.51
2022-08-05T22:54:11.326Z,71.34
2022-08-05T22:56:44.345Z,71.26
2022-08-05T22:59:44.008Z,71.38
2022-08-05T23:02:17.376Z,71.29
2022-08-05T23:04:51.140Z,71.47
2022-08-05T23:07:25.146Z,71.88
2022-08-05T23:10:01.227Z,71.35
2022-08-05T23:12:36.078Z,71.68
2022-08-05T23:15:11.873Z,71.57
2022-08-05T23:18:00.996Z,71.76
2022-08-05T23:20:37.247Z,71.73
2022-08-05T23:23:10.233Z,71.63
2022-08-05T23:25:52.860Z,71.41
2022-08-05T23:28:29.347Z,71.64
2022-08-05T23:31:16.580Z,71.50
2022-08-05T23:34:05.689Z,71.37
2022-08-05T23:36:44.197Z,71.63
2022-08-05T23:39:31.879Z,71.74
2022-08-05T23:42:05.250Z,72.11
2022-08-05T23:44:41.365Z,71.89
2022-08-05T23:47:17.103Z,71.74
2022-08-05T23:49:52.130Z,71.62
2022-08-05T23:52:32.182Z,71.71
2022-08-05T23:55:09.890Z,71.82
2022-08-05T23:57:43.386Z,71.92
